<?xml version="1.0" encoding="UTF-8" standalone="no" ?><gpx xmlns="http://www.topografix.com/GPX/1/1" xmlns:gpxx="http://www.garmin.com/xmlschemas/GpxExtensions/v3" xmlns:wptx1="http://www.garmin.com/xmlschemas/WaypointExtension/v1" xmlns:gpxtpx="http://www.garmin.com/xmlschemas/TrackPointExtension/v1" creator="eTrex 30" version="1.1" xmlns:xsi="http://www.w3.org/2001/XMLSchema-instance" xsi:schemaLocation="http://www.topografix.com/GPX/1/1 http://www.topografix.com/GPX/1/1/gpx.xsd http://www.garmin.com/xmlschemas/GpxExtensions/v3 http://www8.garmin.com/xmlschemas/GpxExtensionsv3.xsd http://www.garmin.com/xmlschemas/WaypointExtension/v1 http://www8.garmin.com/xmlschemas/WaypointExtensionv1.xsd http://www.garmin.com/xmlschemas/TrackPointExtension/v1 http://www.garmin.com/xmlschemas/TrackPointExtensionv1.xsd"><metadata><link href="http://www.garmin.com"><text>Garmin International</text></link><time>2015-11-19T16:43:23Z</time></metadata><trk><name>19-NOV-15 18:43:20</name><extensions><gpxx:TrackExtension><gpxx:DisplayColor>Cyan</gpxx:DisplayColor></gpxx:TrackExtension></extensions><trkseg><trkpt lat="29.5547385234" lon="34.9536360987"><ele>-37.35</ele><time>2015-11-19T12:10:39Z</time></trkpt><trkpt lat="29.5547945984" lon="34.9535971228"><ele>-35.91</ele><time>2015-11-19T12:11:15Z</time></trkpt><trkpt lat="29.5547632501" lon="34.9535639305"><ele>-34.47</ele><time>2015-11-19T12:11:49Z</time></trkpt><trkpt lat="29.5547564607" lon="34.9535834603"><ele>-34.47</ele><time>2015-11-19T12:11:53Z</time></trkpt><trkpt lat="29.5547458157" lon="34.9536306504"><ele>-34.95</ele><time>2015-11-19T12:11:56Z</time></trkpt><trkpt lat="29.5547593944" lon="34.9536505155"><ele>-34.95</ele><time>2015-11-19T12:11:57Z</time></trkpt><trkpt lat="29.5547831152" lon="34.9536610767"><ele>-34.95</ele><time>2015-11-19T12:11:58Z</time></trkpt><trkpt lat="29.5548255276" lon="34.9536435585"><ele>-34.47</ele><time>2015-11-19T12:12:00Z</time></trkpt><trkpt lat="29.5548372623" lon="34.9536262080"><ele>-34.47</ele><time>2015-11-19T12:12:01Z</time></trkpt><trkpt lat="29.5548437163" lon="34.9536107015"><ele>-33.99</ele><time>2015-11-19T12:12:02Z</time></trkpt><trkpt lat="29.5548432972" lon="34.9535975419"><ele>-33.99</ele><time>2015-11-19T12:12:03Z</time></trkpt><trkpt lat="29.5548231807" lon="34.9535805266"><ele>-33.99</ele><time>2015-11-19T12:12:05Z</time></trkpt><trkpt lat="29.5547996275" lon="34.9535703845"><ele>-33.99</ele><time>2015-11-19T12:12:07Z</time></trkpt><trkpt lat="29.5547466539" lon="34.9535801914"><ele>-33.99</ele><time>2015-11-19T12:12:10Z</time></trkpt><trkpt lat="29.5547371823" lon="34.9535996374"><ele>-33.99</ele><time>2015-11-19T12:12:11Z</time></trkpt><trkpt lat="29.5547329076" lon="34.9536174908"><ele>-33.99</ele><time>2015-11-19T12:12:12Z</time></trkpt><trkpt lat="29.5547313988" lon="34.9536316562"><ele>-33.99</ele><time>2015-11-19T12:12:13Z</time></trkpt><trkpt lat="29.5547305606" lon="34.9536439776"><ele>-33.99</ele><time>2015-11-19T12:12:14Z</time></trkpt><trkpt lat="29.5547306444" lon="34.9536562152"><ele>-34.47</ele><time>2015-11-19T12:12:15Z</time></trkpt><trkpt lat="29.5547282137" lon="34.9536673632"><ele>-34.47</ele><time>2015-11-19T12:12:16Z</time></trkpt><trkpt lat="29.5547272917" lon="34.9536768347"><ele>-33.99</ele><time>2015-11-19T12:12:17Z</time></trkpt><trkpt lat="29.5547247771" lon="34.9536876474"><ele>-34.47</ele><time>2015-11-19T12:12:18Z</time></trkpt><trkpt lat="29.5547231007" lon="34.9537075125"><ele>-34.47</ele><time>2015-11-19T12:12:20Z</time></trkpt><trkpt lat="29.5547238551" lon="34.9537194148"><ele>-34.47</ele><time>2015-11-19T12:12:21Z</time></trkpt><trkpt lat="29.5547220949" lon="34.9537362624"><ele>-34.95</ele><time>2015-11-19T12:12:22Z</time></trkpt><trkpt lat="29.5546611585" lon="34.9540608935"><ele>-35.91</ele><time>2015-11-19T12:12:31Z</time></trkpt><trkpt lat="29.5545203425" lon="34.9544337206"><ele>-37.35</ele><time>2015-11-19T12:12:43Z</time></trkpt><trkpt lat="29.5544226933" lon="34.9545450322"><ele>-38.32</ele><time>2015-11-19T12:12:48Z</time></trkpt><trkpt lat="29.5543995593" lon="34.9545856006"><ele>-38.32</ele><time>2015-11-19T12:12:49Z</time></trkpt><trkpt lat="29.5543875732" lon="34.9546368141"><ele>-38.32</ele><time>2015-11-19T12:12:50Z</time></trkpt><trkpt lat="29.5543916803" lon="34.9546885304"><ele>-38.80</ele><time>2015-11-19T12:12:51Z</time></trkpt><trkpt lat="29.5544103719" lon="34.9547325354"><ele>-38.80</ele><time>2015-11-19T12:12:52Z</time></trkpt><trkpt lat="29.5544365235" lon="34.9547677394"><ele>-38.32</ele><time>2015-11-19T12:12:53Z</time></trkpt><trkpt lat="29.5544687938" lon="34.9547919631"><ele>-38.32</ele><time>2015-11-19T12:12:54Z</time></trkpt><trkpt lat="29.5545060933" lon="34.9548060447"><ele>-38.32</ele><time>2015-11-19T12:12:55Z</time></trkpt><trkpt lat="29.5545416325" lon="34.9548146781"><ele>-38.32</ele><time>2015-11-19T12:12:56Z</time></trkpt><trkpt lat="29.5545760822" lon="34.9548166059"><ele>-38.32</ele><time>2015-11-19T12:12:57Z</time></trkpt><trkpt lat="29.5546094421" lon="34.9548135046"><ele>-37.83</ele><time>2015-11-19T12:12:58Z</time></trkpt><trkpt lat="29.5546417125" lon="34.9548088945"><ele>-37.35</ele><time>2015-11-19T12:12:59Z</time></trkpt><trkpt lat="29.5551214926" lon="34.9549624510"><ele>-35.43</ele><time>2015-11-19T12:13:13Z</time></trkpt><trkpt lat="29.5552410185" lon="34.9550115690"><ele>-37.35</ele><time>2015-11-19T12:13:16Z</time></trkpt><trkpt lat="29.5560546499" lon="34.9554999825"><ele>-37.35</ele><time>2015-11-19T12:13:34Z</time></trkpt><trkpt lat="29.5566699654" lon="34.9559142999"><ele>-37.35</ele><time>2015-11-19T12:13:49Z</time></trkpt><trkpt lat="29.5570075884" lon="34.9561218359"><ele>-37.35</ele><time>2015-11-19T12:13:58Z</time></trkpt><trkpt lat="29.5575627219" lon="34.9564263504"><ele>-36.87</ele><time>2015-11-19T12:14:11Z</time></trkpt><trkpt lat="29.5575930644" lon="34.9564632308"><ele>-36.39</ele><time>2015-11-19T12:14:12Z</time></trkpt><trkpt lat="29.5576395001" lon="34.9565453734"><ele>-36.39</ele><time>2015-11-19T12:14:14Z</time></trkpt><trkpt lat="29.5576715190" lon="34.9565817509"><ele>-36.39</ele><time>2015-11-19T12:14:15Z</time></trkpt><trkpt lat="29.5577088185" lon="34.9566133507"><ele>-35.91</ele><time>2015-11-19T12:14:16Z</time></trkpt><trkpt lat="29.5577487163" lon="34.9566382449"><ele>-35.91</ele><time>2015-11-19T12:14:17Z</time></trkpt><trkpt lat="29.5577895362" lon="34.9566566013"><ele>-35.91</ele><time>2015-11-19T12:14:18Z</time></trkpt><trkpt lat="29.5578322839" lon="34.9566680007"><ele>-35.91</ele><time>2015-11-19T12:14:19Z</time></trkpt><trkpt lat="29.5578756183" lon="34.9566739518"><ele>-35.91</ele><time>2015-11-19T12:14:20Z</time></trkpt><trkpt lat="29.5579187013" lon="34.9566747900"><ele>-35.91</ele><time>2015-11-19T12:14:21Z</time></trkpt><trkpt lat="29.5579590183" lon="34.9566797353"><ele>-35.91</ele><time>2015-11-19T12:14:22Z</time></trkpt><trkpt lat="29.5579972398" lon="34.9566963315"><ele>-35.43</ele><time>2015-11-19T12:14:23Z</time></trkpt><trkpt lat="29.5580314379" lon="34.9567247462"><ele>-35.43</ele><time>2015-11-19T12:14:24Z</time></trkpt><trkpt lat="29.5580667257" lon="34.9567567650"><ele>-35.43</ele><time>2015-11-19T12:14:25Z</time></trkpt><trkpt lat="29.5587506052" lon="34.9572345335"><ele>-34.95</ele><time>2015-11-19T12:14:42Z</time></trkpt><trkpt lat="29.5594829321" lon="34.9577069376"><ele>-34.47</ele><time>2015-11-19T12:15:01Z</time></trkpt><trkpt lat="29.5602849964" lon="34.9582393561"><ele>-33.51</ele><time>2015-11-19T12:15:21Z</time></trkpt><trkpt lat="29.5611841232" lon="34.9589218944"><ele>-33.99</ele><time>2015-11-19T12:15:42Z</time></trkpt><trkpt lat="29.5618742891" lon="34.9594632816"><ele>-33.99</ele><time>2015-11-19T12:15:58Z</time></trkpt><trkpt lat="29.5624341164" lon="34.9599574786"><ele>-32.55</ele><time>2015-11-19T12:16:13Z</time></trkpt><trkpt lat="29.5629391260" lon="34.9602845404"><ele>-32.07</ele><time>2015-11-19T12:16:26Z</time></trkpt><trkpt lat="29.5629664510" lon="34.9603209179"><ele>-32.07</ele><time>2015-11-19T12:16:27Z</time></trkpt><trkpt lat="29.5630092826" lon="34.9604090955"><ele>-31.11</ele><time>2015-11-19T12:16:29Z</time></trkpt><trkpt lat="29.5630348474" lon="34.9604502507"><ele>-31.11</ele><time>2015-11-19T12:16:30Z</time></trkpt><trkpt lat="29.5630637649" lon="34.9604860414"><ele>-31.11</ele><time>2015-11-19T12:16:31Z</time></trkpt><trkpt lat="29.5630959515" lon="34.9605157971"><ele>-31.11</ele><time>2015-11-19T12:16:32Z</time></trkpt><trkpt lat="29.5631296467" lon="34.9605406914"><ele>-30.14</ele><time>2015-11-19T12:16:33Z</time></trkpt><trkpt lat="29.5631671138" lon="34.9605602212"><ele>-30.62</ele><time>2015-11-19T12:16:34Z</time></trkpt><trkpt lat="29.5632063411" lon="34.9605735485"><ele>-30.62</ele><time>2015-11-19T12:16:35Z</time></trkpt><trkpt lat="29.5632457361" lon="34.9605822656"><ele>-30.14</ele><time>2015-11-19T12:16:36Z</time></trkpt><trkpt lat="29.5633589756" lon="34.9606006220"><ele>-30.62</ele><time>2015-11-19T12:16:39Z</time></trkpt><trkpt lat="29.5633942634" lon="34.9606211577"><ele>-30.14</ele><time>2015-11-19T12:16:40Z</time></trkpt><trkpt lat="29.5634289645" lon="34.9606481474"><ele>-30.14</ele><time>2015-11-19T12:16:41Z</time></trkpt><trkpt lat="29.5634612348" lon="34.9606794957"><ele>-30.14</ele><time>2015-11-19T12:16:42Z</time></trkpt><trkpt lat="29.5634921640" lon="34.9607111793"><ele>-30.14</ele><time>2015-11-19T12:16:43Z</time></trkpt><trkpt lat="29.5635239314" lon="34.9607395940"><ele>-30.14</ele><time>2015-11-19T12:16:44Z</time></trkpt><trkpt lat="29.5635577105" lon="34.9607684277"><ele>-29.66</ele><time>2015-11-19T12:16:45Z</time></trkpt><trkpt lat="29.5642623771" lon="34.9612800591"><ele>-29.18</ele><time>2015-11-19T12:17:05Z</time></trkpt><trkpt lat="29.5649655350" lon="34.9617394712"><ele>-28.22</ele><time>2015-11-19T12:17:23Z</time></trkpt><trkpt lat="29.5655720495" lon="34.9621419702"><ele>-27.74</ele><time>2015-11-19T12:17:39Z</time></trkpt><trkpt lat="29.5662694238" lon="34.9626027234"><ele>-26.78</ele><time>2015-11-19T12:17:59Z</time></trkpt><trkpt lat="29.5668748487" lon="34.9630120955"><ele>-24.86</ele><time>2015-11-19T12:18:16Z</time></trkpt><trkpt lat="29.5676065888" lon="34.9634990841"><ele>-21.97</ele><time>2015-11-19T12:18:36Z</time></trkpt><trkpt lat="29.5681783184" lon="34.9638437480"><ele>-20.53</ele><time>2015-11-19T12:18:53Z</time></trkpt><trkpt lat="29.5688557439" lon="34.9641229492"><ele>-18.13</ele><time>2015-11-19T12:19:13Z</time></trkpt><trkpt lat="29.5693042595" lon="34.9644246977"><ele>-17.17</ele><time>2015-11-19T12:19:28Z</time></trkpt><trkpt lat="29.5695853885" lon="34.9646257795"><ele>-16.69</ele><time>2015-11-19T12:19:39Z</time></trkpt><trkpt lat="29.5698009711" lon="34.9646196608"><ele>-16.21</ele><time>2015-11-19T12:19:46Z</time></trkpt><trkpt lat="29.5698298886" lon="34.9646355864"><ele>-16.21</ele><time>2015-11-19T12:19:47Z</time></trkpt><trkpt lat="29.5703860279" lon="34.9650459643"><ele>-15.24</ele><time>2015-11-19T12:20:06Z</time></trkpt><trkpt lat="29.5710868388" lon="34.9655161053"><ele>-14.76</ele><time>2015-11-19T12:20:27Z</time></trkpt><trkpt lat="29.5718346722" lon="34.9658855796"><ele>-12.84</ele><time>2015-11-19T12:20:47Z</time></trkpt><trkpt lat="29.5725250896" lon="34.9661567342"><ele>-12.36</ele><time>2015-11-19T12:21:05Z</time></trkpt><trkpt lat="29.5731574204" lon="34.9663705565"><ele>-11.88</ele><time>2015-11-19T12:21:21Z</time></trkpt><trkpt lat="29.5735074487" lon="34.9664781801"><ele>-11.88</ele><time>2015-11-19T12:21:30Z</time></trkpt><trkpt lat="29.5741376840" lon="34.9666776694"><ele>-9.96</ele><time>2015-11-19T12:21:46Z</time></trkpt><trkpt lat="29.5748975873" lon="34.9669100158"><ele>-8.03</ele><time>2015-11-19T12:22:06Z</time></trkpt><trkpt lat="29.5754612703" lon="34.9670816772"><ele>-5.15</ele><time>2015-11-19T12:22:22Z</time></trkpt><trkpt lat="29.5759364404" lon="34.9672255106"><ele>-2.27</ele><time>2015-11-19T12:22:37Z</time></trkpt><trkpt lat="29.5764614828" lon="34.9673819169"><ele>0.62</ele><time>2015-11-19T12:22:54Z</time></trkpt><trkpt lat="29.5769585297" lon="34.9675164465"><ele>3.02</ele><time>2015-11-19T12:23:10Z</time></trkpt><trkpt lat="29.5774859190" lon="34.9676745292"><ele>6.39</ele><time>2015-11-19T12:23:28Z</time></trkpt><trkpt lat="29.5778213628" lon="34.9679316860"><ele>7.83</ele><time>2015-11-19T12:23:42Z</time></trkpt><trkpt lat="29.5781110413" lon="34.9679749366"><ele>9.75</ele><time>2015-11-19T12:23:51Z</time></trkpt><trkpt lat="29.5784931723" lon="34.9679838214"><ele>11.19</ele><time>2015-11-19T12:24:05Z</time></trkpt><trkpt lat="29.5790164545" lon="34.9681762699"><ele>14.56</ele><time>2015-11-19T12:24:24Z</time></trkpt><trkpt lat="29.5795586798" lon="34.9685060140"><ele>16.48</ele><time>2015-11-19T12:24:45Z</time></trkpt><trkpt lat="29.5800985582" lon="34.9688467383"><ele>17.44</ele><time>2015-11-19T12:25:04Z</time></trkpt><trkpt lat="29.5808826853" lon="34.9693260994"><ele>17.44</ele><time>2015-11-19T12:25:26Z</time></trkpt><trkpt lat="29.5815575123" lon="34.9697503913"><ele>16.00</ele><time>2015-11-19T12:25:44Z</time></trkpt><trkpt lat="29.5815871004" lon="34.9697816558"><ele>16.48</ele><time>2015-11-19T12:25:45Z</time></trkpt><trkpt lat="29.5816115756" lon="34.9698206317"><ele>16.00</ele><time>2015-11-19T12:25:46Z</time></trkpt><trkpt lat="29.5816304348" lon="34.9698633794"><ele>15.52</ele><time>2015-11-19T12:25:47Z</time></trkpt><trkpt lat="29.5816435106" lon="34.9699099828"><ele>15.52</ele><time>2015-11-19T12:25:48Z</time></trkpt><trkpt lat="29.5816528983" lon="34.9699596874"><ele>15.52</ele><time>2015-11-19T12:25:49Z</time></trkpt><trkpt lat="29.5816631243" lon="34.9700650480"><ele>15.04</ele><time>2015-11-19T12:25:51Z</time></trkpt><trkpt lat="29.5816583466" lon="34.9701202009"><ele>15.04</ele><time>2015-11-19T12:25:52Z</time></trkpt><trkpt lat="29.5816404931" lon="34.9701755214"><ele>15.04</ele><time>2015-11-19T12:25:53Z</time></trkpt><trkpt lat="29.5816114079" lon="34.9702285789"><ele>15.04</ele><time>2015-11-19T12:25:54Z</time></trkpt><trkpt lat="29.5815714262" lon="34.9702786189"><ele>15.04</ele><time>2015-11-19T12:25:55Z</time></trkpt><trkpt lat="29.5815194584" lon="34.9703217018"><ele>15.52</ele><time>2015-11-19T12:25:56Z</time></trkpt><trkpt lat="29.5814586896" lon="34.9703590851"><ele>14.56</ele><time>2015-11-19T12:25:57Z</time></trkpt><trkpt lat="29.5813923888" lon="34.9703958817"><ele>14.08</ele><time>2015-11-19T12:25:58Z</time></trkpt><trkpt lat="29.5811764710" lon="34.9705222808"><ele>10.71</ele><time>2015-11-19T12:26:01Z</time></trkpt><trkpt lat="29.5809525065" lon="34.9706401303"><ele>9.27</ele><time>2015-11-19T12:26:04Z</time></trkpt><trkpt lat="29.5807225071" lon="34.9707936868"><ele>8.79</ele><time>2015-11-19T12:26:08Z</time></trkpt><trkpt lat="29.5806907397" lon="34.9708418828"><ele>8.31</ele><time>2015-11-19T12:26:09Z</time></trkpt><trkpt lat="29.5806716289" lon="34.9708997179"><ele>7.83</ele><time>2015-11-19T12:26:10Z</time></trkpt><trkpt lat="29.5806660969" lon="34.9709609058"><ele>7.83</ele><time>2015-11-19T12:26:11Z</time></trkpt><trkpt lat="29.5806714613" lon="34.9710204173"><ele>7.35</ele><time>2015-11-19T12:26:12Z</time></trkpt><trkpt lat="29.5806796756" lon="34.9710789230"><ele>6.39</ele><time>2015-11-19T12:26:13Z</time></trkpt><trkpt lat="29.5806832798" lon="34.9711390212"><ele>6.39</ele><time>2015-11-19T12:26:14Z</time></trkpt><trkpt lat="29.5806812681" lon="34.9712004606"><ele>6.39</ele><time>2015-11-19T12:26:15Z</time></trkpt><trkpt lat="29.5806746464" lon="34.9712604750"><ele>6.39</ele><time>2015-11-19T12:26:16Z</time></trkpt><trkpt lat="29.5806655101" lon="34.9713209085"><ele>6.39</ele><time>2015-11-19T12:26:17Z</time></trkpt><trkpt lat="29.5806519315" lon="34.9713825155"><ele>5.91</ele><time>2015-11-19T12:26:18Z</time></trkpt><trkpt lat="29.5806332398" lon="34.9714457989"><ele>5.91</ele><time>2015-11-19T12:26:19Z</time></trkpt><trkpt lat="29.5803579781" lon="34.9722418282"><ele>2.54</ele><time>2015-11-19T12:26:31Z</time></trkpt><trkpt lat="29.5801202673" lon="34.9729116261"><ele>-0.34</ele><time>2015-11-19T12:26:40Z</time></trkpt><trkpt lat="29.5798802935" lon="34.9736048933"><ele>-3.71</ele><time>2015-11-19T12:26:49Z</time></trkpt><trkpt lat="29.5798457600" lon="34.9736518320"><ele>-3.71</ele><time>2015-11-19T12:26:50Z</time></trkpt><trkpt lat="29.5797947980" lon="34.9736856110"><ele>-3.71</ele><time>2015-11-19T12:26:51Z</time></trkpt><trkpt lat="29.5797350351" lon="34.9737014528"><ele>-3.71</ele><time>2015-11-19T12:26:52Z</time></trkpt><trkpt lat="29.5796746016" lon="34.9736966752"><ele>-3.71</ele><time>2015-11-19T12:26:53Z</time></trkpt><trkpt lat="29.5796182752" lon="34.9736760557"><ele>-3.71</ele><time>2015-11-19T12:26:54Z</time></trkpt><trkpt lat="29.5795653854" lon="34.9736478087"><ele>-3.71</ele><time>2015-11-19T12:26:55Z</time></trkpt><trkpt lat="29.5795128308" lon="34.9736197293"><ele>-3.71</ele><time>2015-11-19T12:26:56Z</time></trkpt><trkpt lat="29.5786255226" lon="34.9731135461"><ele>-3.71</ele><time>2015-11-19T12:27:11Z</time></trkpt><trkpt lat="29.5780095365" lon="34.9727112148"><ele>-4.19</ele><time>2015-11-19T12:27:22Z</time></trkpt><trkpt lat="29.5779640228" lon="34.9726973008"><ele>-3.71</ele><time>2015-11-19T12:27:23Z</time></trkpt><trkpt lat="29.5779209398" lon="34.9727008212"><ele>-3.23</ele><time>2015-11-19T12:27:24Z</time></trkpt><trkpt lat="29.5778797008" lon="34.9727185909"><ele>-3.23</ele><time>2015-11-19T12:27:25Z</time></trkpt><trkpt lat="29.5778398868" lon="34.9727451615"><ele>-3.71</ele><time>2015-11-19T12:27:26Z</time></trkpt><trkpt lat="29.5778005756" lon="34.9727767613"><ele>-3.71</ele><time>2015-11-19T12:27:27Z</time></trkpt><trkpt lat="29.5777610969" lon="34.9728124682"><ele>-4.19</ele><time>2015-11-19T12:27:28Z</time></trkpt><trkpt lat="29.5777214505" lon="34.9728522822"><ele>-4.67</ele><time>2015-11-19T12:27:29Z</time></trkpt><trkpt lat="29.5772627927" lon="34.9733882211"><ele>-7.55</ele><time>2015-11-19T12:27:39Z</time></trkpt><trkpt lat="29.5767672546" lon="34.9739711825"><ele>-10.92</ele><time>2015-11-19T12:27:48Z</time></trkpt><trkpt lat="29.5763084292" lon="34.9745182693"><ele>-12.84</ele><time>2015-11-19T12:27:56Z</time></trkpt><trkpt lat="29.5756666269" lon="34.9753874727"><ele>-14.76</ele><time>2015-11-19T12:28:10Z</time></trkpt><trkpt lat="29.5754725020" lon="34.9757413566"><ele>-16.69</ele><time>2015-11-19T12:28:16Z</time></trkpt><trkpt lat="29.5753587596" lon="34.9759234954"><ele>-16.21</ele><time>2015-11-19T12:28:20Z</time></trkpt><trkpt lat="29.5752279181" lon="34.9761725217"><ele>-16.69</ele><time>2015-11-19T12:28:30Z</time></trkpt><trkpt lat="29.5752186142" lon="34.9761981703"><ele>-16.21</ele><time>2015-11-19T12:28:59Z</time></trkpt><trkpt lat="29.5752271637" lon="34.9762177002"><ele>-16.21</ele><time>2015-11-19T12:29:06Z</time></trkpt><trkpt lat="29.5752066281" lon="34.9762881082"><ele>-15.72</ele><time>2015-11-19T12:29:18Z</time></trkpt><trkpt lat="29.5751458593" lon="34.9764411617"><ele>-15.24</ele><time>2015-11-19T12:29:31Z</time></trkpt><trkpt lat="29.5751568396" lon="34.9766049441"><ele>-15.24</ele><time>2015-11-19T12:29:45Z</time></trkpt><trkpt lat="29.5751653053" lon="34.9766761065"><ele>-15.24</ele><time>2015-11-19T12:29:51Z</time></trkpt><trkpt lat="29.5751734357" lon="34.9768631067"><ele>-15.24</ele><time>2015-11-19T12:30:05Z</time></trkpt><trkpt lat="29.5751788002" lon="34.9769630190"><ele>-14.76</ele><time>2015-11-19T12:30:18Z</time></trkpt><trkpt lat="29.5751460269" lon="34.9770321697"><ele>-14.28</ele><time>2015-11-19T12:30:31Z</time></trkpt><trkpt lat="29.5752073824" lon="34.9770206027"><ele>-14.28</ele><time>2015-11-19T12:30:59Z</time></trkpt><trkpt lat="29.5752985775" lon="34.9769320060"><ele>-13.32</ele><time>2015-11-19T12:31:39Z</time></trkpt><trkpt lat="29.5753088873" lon="34.9769972172"><ele>-11.88</ele><time>2015-11-19T12:32:17Z</time></trkpt><trkpt lat="29.5752829872" lon="34.9770119693"><ele>-11.88</ele><time>2015-11-19T12:33:01Z</time></trkpt><trkpt lat="29.5752902795" lon="34.9770457484"><ele>-11.40</ele><time>2015-11-19T12:33:39Z</time></trkpt><trkpt lat="29.5752527285" lon="34.9770827964"><ele>-10.44</ele><time>2015-11-19T12:34:15Z</time></trkpt><trkpt lat="29.5752828196" lon="34.9770053476"><ele>-9.96</ele><time>2015-11-19T12:34:52Z</time></trkpt><trkpt lat="29.5753022656" lon="34.9770273920"><ele>-9.00</ele><time>2015-11-19T12:35:28Z</time></trkpt><trkpt lat="29.5752761140" lon="34.9769939482"><ele>-9.00</ele><time>2015-11-19T12:36:02Z</time></trkpt><trkpt lat="29.5753355417" lon="34.9769903440"><ele>-8.03</ele><time>2015-11-19T12:36:35Z</time></trkpt><trkpt lat="29.5753261540" lon="34.9770206027"><ele>-8.03</ele><time>2015-11-19T12:37:10Z</time></trkpt><trkpt lat="29.5753769483" lon="34.9769968819"><ele>-7.07</ele><time>2015-11-19T12:37:48Z</time></trkpt><trkpt lat="29.5754511282" lon="34.9769745860"><ele>-6.59</ele><time>2015-11-19T12:38:23Z</time></trkpt><trkpt lat="29.5754254796" lon="34.9769734964"><ele>-6.59</ele><time>2015-11-19T12:38:56Z</time></trkpt><trkpt lat="29.5754428301" lon="34.9769955408"><ele>-6.11</ele><time>2015-11-19T12:39:35Z</time></trkpt><trkpt lat="29.5753891021" lon="34.9770400487"><ele>-6.11</ele><time>2015-11-19T12:40:10Z</time></trkpt><trkpt lat="29.5752758626" lon="34.9771407153"><ele>-6.11</ele><time>2015-11-19T12:40:16Z</time></trkpt><trkpt lat="29.5752756111" lon="34.9775739759"><ele>-6.11</ele><time>2015-11-19T12:40:31Z</time></trkpt><trkpt lat="29.5752206258" lon="34.9778109323"><ele>-5.15</ele><time>2015-11-19T12:40:44Z</time></trkpt><trkpt lat="29.5751886070" lon="34.9778814241"><ele>-5.15</ele><time>2015-11-19T12:40:54Z</time></trkpt><trkpt lat="29.5751668140" lon="34.9778727069"><ele>-5.15</ele><time>2015-11-19T12:40:57Z</time></trkpt><trkpt lat="29.5750558376" lon="34.9779012892"><ele>-4.67</ele><time>2015-11-19T12:41:11Z</time></trkpt><trkpt lat="29.5750560891" lon="34.9779013731"><ele>-4.67</ele><time>2015-11-19T12:41:12Z</time></trkpt><trkpt lat="29.5751039498" lon="34.9778836034"><ele>-4.67</ele><time>2015-11-19T12:41:18Z</time></trkpt><trkpt lat="29.5751608629" lon="34.9778851960"><ele>-4.67</ele><time>2015-11-19T12:41:22Z</time></trkpt><trkpt lat="29.5751840807" lon="34.9778767303"><ele>-4.67</ele><time>2015-11-19T12:41:25Z</time></trkpt><trkpt lat="29.5752330311" lon="34.9778041430"><ele>-4.67</ele><time>2015-11-19T12:41:33Z</time></trkpt><trkpt lat="29.5752645470" lon="34.9777709506"><ele>-4.67</ele><time>2015-11-19T12:41:36Z</time></trkpt><trkpt lat="29.5752782095" lon="34.9777771533"><ele>-4.19</ele><time>2015-11-19T12:41:41Z</time></trkpt><trkpt lat="29.5752725098" lon="34.9778149556"><ele>-3.23</ele><time>2015-11-19T12:41:57Z</time></trkpt><trkpt lat="29.5752187818" lon="34.9779916462"><ele>-2.75</ele><time>2015-11-19T12:42:20Z</time></trkpt><trkpt lat="29.5751915406" lon="34.9780400936"><ele>-2.27</ele><time>2015-11-19T12:42:40Z</time></trkpt><trkpt lat="29.5751784649" lon="34.9780268501"><ele>-2.27</ele><time>2015-11-19T12:42:59Z</time></trkpt><trkpt lat="29.5751765370" lon="34.9780488107"><ele>-2.27</ele><time>2015-11-19T12:43:03Z</time></trkpt><trkpt lat="29.5751407463" lon="34.9781643134"><ele>-1.30</ele><time>2015-11-19T12:43:12Z</time></trkpt><trkpt lat="29.5751109906" lon="34.9783446081"><ele>-0.82</ele><time>2015-11-19T12:43:29Z</time></trkpt><trkpt lat="29.5751160197" lon="34.9784749467"><ele>-1.79</ele><time>2015-11-19T12:43:41Z</time></trkpt><trkpt lat="29.5751430094" lon="34.9789724965"><ele>-1.30</ele><time>2015-11-19T12:43:56Z</time></trkpt><trkpt lat="29.5752244815" lon="34.9796503410"><ele>-0.34</ele><time>2015-11-19T12:44:13Z</time></trkpt><trkpt lat="29.5752719231" lon="34.9800346512"><ele>-0.34</ele><time>2015-11-19T12:44:24Z</time></trkpt><trkpt lat="29.5752918720" lon="34.9800482299"><ele>-0.34</ele><time>2015-11-19T12:44:25Z</time></trkpt><trkpt lat="29.5753282495" lon="34.9800467212"><ele>-0.34</ele><time>2015-11-19T12:44:27Z</time></trkpt><trkpt lat="29.5753311832" lon="34.9800292868"><ele>0.14</ele><time>2015-11-19T12:44:28Z</time></trkpt><trkpt lat="29.5753206220" lon="34.9800100084"><ele>0.14</ele><time>2015-11-19T12:44:29Z</time></trkpt><trkpt lat="29.5753016789" lon="34.9800002854"><ele>-0.34</ele><time>2015-11-19T12:44:30Z</time></trkpt><trkpt lat="29.5752606913" lon="34.9800272752"><ele>-0.34</ele><time>2015-11-19T12:44:32Z</time></trkpt><trkpt lat="29.5752509683" lon="34.9800571986"><ele>0.14</ele><time>2015-11-19T12:44:33Z</time></trkpt><trkpt lat="29.5752503816" lon="34.9800908938"><ele>0.14</ele><time>2015-11-19T12:44:34Z</time></trkpt><trkpt lat="29.5752553269" lon="34.9801224936"><ele>0.14</ele><time>2015-11-19T12:44:35Z</time></trkpt><trkpt lat="29.5752615295" lon="34.9801510759"><ele>0.14</ele><time>2015-11-19T12:44:36Z</time></trkpt><trkpt lat="29.5752685703" lon="34.9801767245"><ele>0.14</ele><time>2015-11-19T12:44:37Z</time></trkpt><trkpt lat="29.5752729289" lon="34.9801966734"><ele>0.62</ele><time>2015-11-19T12:44:38Z</time></trkpt><trkpt lat="29.5752761979" lon="34.9802809954"><ele>0.62</ele><time>2015-11-19T12:44:53Z</time></trkpt><trkpt lat="29.5753147546" lon="34.9805561733"><ele>0.62</ele><time>2015-11-19T12:45:12Z</time></trkpt><trkpt lat="29.5753609389" lon="34.9808028527"><ele>1.10</ele><time>2015-11-19T12:45:31Z</time></trkpt><trkpt lat="29.5753386430" lon="34.9808228016"><ele>1.58</ele><time>2015-11-19T12:45:44Z</time></trkpt><trkpt lat="29.5752926264" lon="34.9807722587"><ele>1.58</ele><time>2015-11-19T12:45:56Z</time></trkpt><trkpt lat="29.5752838254" lon="34.9807486217"><ele>1.58</ele><time>2015-11-19T12:45:59Z</time></trkpt><trkpt lat="29.5753418282" lon="34.9806607794"><ele>1.58</ele><time>2015-11-19T12:46:13Z</time></trkpt><trkpt lat="29.5753662195" lon="34.9806575105"><ele>2.06</ele><time>2015-11-19T12:46:28Z</time></trkpt><trkpt lat="29.5753983222" lon="34.9806658085"><ele>2.54</ele><time>2015-11-19T12:46:44Z</time></trkpt><trkpt lat="29.5754264016" lon="34.9806556664"><ele>3.02</ele><time>2015-11-19T12:47:07Z</time></trkpt><trkpt lat="29.5754248090" lon="34.9806773756"><ele>3.50</ele><time>2015-11-19T12:47:31Z</time></trkpt><trkpt lat="29.5754186064" lon="34.9806627911"><ele>3.50</ele><time>2015-11-19T12:47:53Z</time></trkpt><trkpt lat="29.5754537266" lon="34.9806735199"><ele>3.02</ele><time>2015-11-19T12:48:11Z</time></trkpt><trkpt lat="29.5754951332" lon="34.9807391502"><ele>3.50</ele><time>2015-11-19T12:48:45Z</time></trkpt><trkpt lat="29.5754992403" lon="34.9807404075"><ele>4.94</ele><time>2015-11-19T12:49:09Z</time></trkpt><trkpt lat="29.5754435845" lon="34.9807974882"><ele>4.94</ele><time>2015-11-19T12:49:29Z</time></trkpt><trkpt lat="29.5754212048" lon="34.9808453489"><ele>4.94</ele><time>2015-11-19T12:49:32Z</time></trkpt><trkpt lat="29.5753243100" lon="34.9809080455"><ele>5.42</ele><time>2015-11-19T12:49:47Z</time></trkpt><trkpt lat="29.5752563328" lon="34.9808876775"><ele>5.91</ele><time>2015-11-19T12:50:17Z</time></trkpt><trkpt lat="29.5752518065" lon="34.9808922876"><ele>6.39</ele><time>2015-11-19T12:50:45Z</time></trkpt><trkpt lat="29.5752242301" lon="34.9809027649"><ele>6.87</ele><time>2015-11-19T12:51:06Z</time></trkpt><trkpt lat="29.5751738548" lon="34.9808905274"><ele>7.83</ele><time>2015-11-19T12:51:30Z</time></trkpt><trkpt lat="29.5752269961" lon="34.9809277430"><ele>8.31</ele><time>2015-11-19T12:51:58Z</time></trkpt><trkpt lat="29.5752137527" lon="34.9809336103"><ele>8.79</ele><time>2015-11-19T12:52:21Z</time></trkpt><trkpt lat="29.5751865115" lon="34.9809127394"><ele>9.27</ele><time>2015-11-19T12:52:41Z</time></trkpt><trkpt lat="29.5752533991" lon="34.9808653817"><ele>10.23</ele><time>2015-11-19T12:53:16Z</time></trkpt><trkpt lat="29.5752796344" lon="34.9808475282"><ele>10.71</ele><time>2015-11-19T12:53:53Z</time></trkpt><trkpt lat="29.5752707496" lon="34.9808921199"><ele>11.67</ele><time>2015-11-19T12:54:21Z</time></trkpt><trkpt lat="29.5752596855" lon="34.9808661360"><ele>12.15</ele><time>2015-11-19T12:54:44Z</time></trkpt><trkpt lat="29.5752456039" lon="34.9808170181"><ele>12.63</ele><time>2015-11-19T12:55:14Z</time></trkpt><trkpt lat="29.5752526447" lon="34.9808390625"><ele>13.60</ele><time>2015-11-19T12:55:38Z</time></trkpt><trkpt lat="29.5752589311" lon="34.9808410741"><ele>14.08</ele><time>2015-11-19T12:56:06Z</time></trkpt><trkpt lat="29.5752755273" lon="34.9808761943"><ele>14.56</ele><time>2015-11-19T12:56:34Z</time></trkpt><trkpt lat="29.5752199553" lon="34.9809274077"><ele>15.52</ele><time>2015-11-19T12:57:07Z</time></trkpt><trkpt lat="29.5752205420" lon="34.9808967300"><ele>16.48</ele><time>2015-11-19T12:57:41Z</time></trkpt><trkpt lat="29.5752520580" lon="34.9808878452"><ele>16.48</ele><time>2015-11-19T12:58:01Z</time></trkpt><trkpt lat="29.5752492081" lon="34.9808911979"><ele>17.44</ele><time>2015-11-19T12:58:25Z</time></trkpt><trkpt lat="29.5752059575" lon="34.9808787927"><ele>17.92</ele><time>2015-11-19T12:58:58Z</time></trkpt><trkpt lat="29.5752337016" lon="34.9808564130"><ele>18.88</ele><time>2015-11-19T12:59:32Z</time></trkpt><trkpt lat="29.5752148423" lon="34.9808501266"><ele>19.84</ele><time>2015-11-19T13:00:07Z</time></trkpt><trkpt lat="29.5752347913" lon="34.9808581732"><ele>20.32</ele><time>2015-11-19T13:00:35Z</time></trkpt><trkpt lat="29.5751680713" lon="34.9808070436"><ele>21.29</ele><time>2015-11-19T13:01:11Z</time></trkpt><trkpt lat="29.5751922950" lon="34.9808213767"><ele>21.77</ele><time>2015-11-19T13:01:36Z</time></trkpt><trkpt lat="29.5751848351" lon="34.9808081333"><ele>22.73</ele><time>2015-11-19T13:02:13Z</time></trkpt><trkpt lat="29.5751852542" lon="34.9808168504"><ele>23.21</ele><time>2015-11-19T13:02:45Z</time></trkpt><trkpt lat="29.5752173569" lon="34.9808134977"><ele>23.69</ele><time>2015-11-19T13:03:14Z</time></trkpt><trkpt lat="29.5751718432" lon="34.9808048643"><ele>24.65</ele><time>2015-11-19T13:03:44Z</time></trkpt><trkpt lat="29.5752306003" lon="34.9808323570"><ele>25.13</ele><time>2015-11-19T13:04:12Z</time></trkpt><trkpt lat="29.5752484538" lon="34.9809142482"><ele>25.61</ele><time>2015-11-19T13:04:44Z</time></trkpt><trkpt lat="29.5752131660" lon="34.9810336903"><ele>26.09</ele><time>2015-11-19T13:05:22Z</time></trkpt><trkpt lat="29.5752268285" lon="34.9809776992"><ele>26.57</ele><time>2015-11-19T13:05:59Z</time></trkpt><trkpt lat="29.5752217155" lon="34.9809631985"><ele>27.53</ele><time>2015-11-19T13:06:32Z</time></trkpt><trkpt lat="29.5751906186" lon="34.9809461832"><ele>27.53</ele><time>2015-11-19T13:07:09Z</time></trkpt><trkpt lat="29.5752394851" lon="34.9809347838"><ele>28.50</ele><time>2015-11-19T13:07:51Z</time></trkpt><trkpt lat="29.5752432570" lon="34.9809353705"><ele>28.50</ele><time>2015-11-19T13:08:21Z</time></trkpt><trkpt lat="29.5752528124" lon="34.9809088837"><ele>28.98</ele><time>2015-11-19T13:09:01Z</time></trkpt><trkpt lat="29.5752698276" lon="34.9809098057"><ele>29.46</ele><time>2015-11-19T13:09:33Z</time></trkpt><trkpt lat="29.5752612781" lon="34.9809027649"><ele>29.46</ele><time>2015-11-19T13:10:01Z</time></trkpt><trkpt lat="29.5752816461" lon="34.9809302576"><ele>29.46</ele><time>2015-11-19T13:10:34Z</time></trkpt><trkpt lat="29.5752868429" lon="34.9809502903"><ele>29.94</ele><time>2015-11-19T13:11:06Z</time></trkpt><trkpt lat="29.5753105637" lon="34.9809440039"><ele>29.94</ele><time>2015-11-19T13:11:41Z</time></trkpt><trkpt lat="29.5752801374" lon="34.9809719995"><ele>29.94</ele><time>2015-11-19T13:12:08Z</time></trkpt><trkpt lat="29.5753024332" lon="34.9809906073"><ele>30.42</ele><time>2015-11-19T13:12:41Z</time></trkpt><trkpt lat="29.5753222983" lon="34.9809884280"><ele>30.42</ele><time>2015-11-19T13:13:12Z</time></trkpt><trkpt lat="29.5752980746" lon="34.9809959717"><ele>29.94</ele><time>2015-11-19T13:13:46Z</time></trkpt><trkpt lat="29.5752753597" lon="34.9809975643"><ele>29.46</ele><time>2015-11-19T13:14:14Z</time></trkpt><trkpt lat="29.5753104798" lon="34.9810047727"><ele>30.42</ele><time>2015-11-19T13:14:46Z</time></trkpt><trkpt lat="29.5753069595" lon="34.9810175132"><ele>30.42</ele><time>2015-11-19T13:15:17Z</time></trkpt><trkpt lat="29.5752980746" lon="34.9810162559"><ele>30.90</ele><time>2015-11-19T13:15:49Z</time></trkpt><trkpt lat="29.5753273275" lon="34.9810129032"><ele>30.90</ele><time>2015-11-19T13:16:26Z</time></trkpt><trkpt lat="29.5753266569" lon="34.9809834827"><ele>30.90</ele><time>2015-11-19T13:16:54Z</time></trkpt><trkpt lat="29.5753264893" lon="34.9809682276"><ele>30.90</ele><time>2015-11-19T13:17:30Z</time></trkpt><trkpt lat="29.5753341168" lon="34.9809859134"><ele>30.90</ele><time>2015-11-19T13:17:58Z</time></trkpt><trkpt lat="29.5753709134" lon="34.9810714088"><ele>30.90</ele><time>2015-11-19T13:18:27Z</time></trkpt><trkpt lat="29.5753274113" lon="34.9810598418"><ele>31.38</ele><time>2015-11-19T13:19:00Z</time></trkpt><trkpt lat="29.5753310993" lon="34.9810581654"><ele>31.38</ele><time>2015-11-19T13:19:27Z</time></trkpt><trkpt lat="29.5753430855" lon="34.9811103847"><ele>31.38</ele><time>2015-11-19T13:19:47Z</time></trkpt><trkpt lat="29.5753581729" lon="34.9811592512"><ele>31.38</ele><time>2015-11-19T13:20:16Z</time></trkpt><trkpt lat="29.5753450971" lon="34.9812713172"><ele>31.86</ele><time>2015-11-19T13:20:48Z</time></trkpt><trkpt lat="29.5754256472" lon="34.9814171623"><ele>31.86</ele><time>2015-11-19T13:20:56Z</time></trkpt><trkpt lat="29.5755983982" lon="34.9817684479"><ele>31.86</ele><time>2015-11-19T13:21:09Z</time></trkpt><trkpt lat="29.5755994041" lon="34.9818217568"><ele>31.86</ele><time>2015-11-19T13:21:18Z</time></trkpt><trkpt lat="29.5756134856" lon="34.9818914104"><ele>31.86</ele><time>2015-11-19T13:21:31Z</time></trkpt><trkpt lat="29.5756310876" lon="34.9819580466"><ele>31.86</ele><time>2015-11-19T13:21:51Z</time></trkpt><trkpt lat="29.5756180119" lon="34.9819646683"><ele>31.86</ele><time>2015-11-19T13:22:23Z</time></trkpt><trkpt lat="29.5756180119" lon="34.9820861220"><ele>32.82</ele><time>2015-11-19T13:22:41Z</time></trkpt><trkpt lat="29.5756827202" lon="34.9823583663"><ele>32.34</ele><time>2015-11-19T13:22:53Z</time></trkpt><trkpt lat="29.5757744182" lon="34.9827765394"><ele>32.82</ele><time>2015-11-19T13:23:07Z</time></trkpt><trkpt lat="29.5758993924" lon="34.9832780287"><ele>32.34</ele><time>2015-11-19T13:23:22Z</time></trkpt><trkpt lat="29.5760367718" lon="34.9839028157"><ele>33.78</ele><time>2015-11-19T13:23:39Z</time></trkpt><trkpt lat="29.5761778392" lon="34.9845146108"><ele>33.78</ele><time>2015-11-19T13:23:55Z</time></trkpt><trkpt lat="29.5764015522" lon="34.9854670465"><ele>35.23</ele><time>2015-11-19T13:24:14Z</time></trkpt><trkpt lat="29.5766086690" lon="34.9862757325"><ele>35.71</ele><time>2015-11-19T13:24:29Z</time></trkpt><trkpt lat="29.5768370759" lon="34.9872374721"><ele>36.67</ele><time>2015-11-19T13:24:47Z</time></trkpt><trkpt lat="29.5770511497" lon="34.9881125428"><ele>37.63</ele><time>2015-11-19T13:25:05Z</time></trkpt><trkpt lat="29.5772541594" lon="34.9889302813"><ele>39.07</ele><time>2015-11-19T13:25:21Z</time></trkpt><trkpt lat="29.5774319395" lon="34.9897491932"><ele>40.03</ele><time>2015-11-19T13:25:37Z</time></trkpt><trkpt lat="29.5775971469" lon="34.9906860385"><ele>40.51</ele><time>2015-11-19T13:25:55Z</time></trkpt><trkpt lat="29.5776813850" lon="34.9915580079"><ele>41.47</ele><time>2015-11-19T13:26:12Z</time></trkpt><trkpt lat="29.5777561516" lon="34.9923911691"><ele>42.92</ele><time>2015-11-19T13:26:29Z</time></trkpt><trkpt lat="29.5777624380" lon="34.9924398679"><ele>42.44</ele><time>2015-11-19T13:26:30Z</time></trkpt><trkpt lat="29.5777783636" lon="34.9925883114"><ele>42.92</ele><time>2015-11-19T13:26:33Z</time></trkpt><trkpt lat="29.5777856559" lon="34.9926371779"><ele>42.92</ele><time>2015-11-19T13:26:34Z</time></trkpt><trkpt lat="29.5778850652" lon="34.9935615342"><ele>43.40</ele><time>2015-11-19T13:26:52Z</time></trkpt><trkpt lat="29.5779848099" lon="34.9945901614"><ele>44.36</ele><time>2015-11-19T13:27:11Z</time></trkpt><trkpt lat="29.5780925173" lon="34.9955702573"><ele>45.80</ele><time>2015-11-19T13:27:30Z</time></trkpt><trkpt lat="29.5781314094" lon="34.9958696589"><ele>45.80</ele><time>2015-11-19T13:27:36Z</time></trkpt><trkpt lat="29.5781347621" lon="34.9959235545"><ele>45.80</ele><time>2015-11-19T13:27:37Z</time></trkpt><trkpt lat="29.5782443974" lon="34.9969178159"><ele>47.24</ele><time>2015-11-19T13:27:57Z</time></trkpt><trkpt lat="29.5783458184" lon="34.9978478719"><ele>48.68</ele><time>2015-11-19T13:28:16Z</time></trkpt><trkpt lat="29.5784528553" lon="34.9988122098"><ele>49.16</ele><time>2015-11-19T13:28:36Z</time></trkpt><trkpt lat="29.5784728043" lon="34.9989647605"><ele>49.65</ele><time>2015-11-19T13:28:39Z</time></trkpt><trkpt lat="29.5784801804" lon="34.9990145490"><ele>49.65</ele><time>2015-11-19T13:28:40Z</time></trkpt><trkpt lat="29.5784862153" lon="34.9990650918"><ele>50.13</ele><time>2015-11-19T13:28:41Z</time></trkpt><trkpt lat="29.5785863791" lon="34.9998812377"><ele>51.57</ele><time>2015-11-19T13:28:58Z</time></trkpt><trkpt lat="29.5786341559" lon="35.0003306754"><ele>52.05</ele><time>2015-11-19T13:29:07Z</time></trkpt><trkpt lat="29.5786394365" lon="35.0003784522"><ele>53.01</ele><time>2015-11-19T13:29:08Z</time></trkpt><trkpt lat="29.5787449647" lon="35.0012906548"><ele>53.49</ele><time>2015-11-19T13:29:26Z</time></trkpt><trkpt lat="29.5788047276" lon="35.0018644799"><ele>53.49</ele><time>2015-11-19T13:29:37Z</time></trkpt><trkpt lat="29.5788105950" lon="35.0019164477"><ele>53.97</ele><time>2015-11-19T13:29:38Z</time></trkpt><trkpt lat="29.5788835175" lon="35.0027658697"><ele>54.93</ele><time>2015-11-19T13:29:55Z</time></trkpt><trkpt lat="29.5789711084" lon="35.0036074966"><ele>56.37</ele><time>2015-11-19T13:30:13Z</time></trkpt><trkpt lat="29.5790463779" lon="35.0043835770"><ele>57.82</ele><time>2015-11-19T13:30:30Z</time></trkpt><trkpt lat="29.5791301131" lon="35.0052545406"><ele>58.78</ele><time>2015-11-19T13:30:49Z</time></trkpt><trkpt lat="29.5791747887" lon="35.0057306327"><ele>59.74</ele><time>2015-11-19T13:31:03Z</time></trkpt><trkpt lat="29.5791884512" lon="35.0058903079"><ele>60.22</ele><time>2015-11-19T13:31:09Z</time></trkpt><trkpt lat="29.5792020299" lon="35.0059155375"><ele>59.74</ele><time>2015-11-19T13:31:21Z</time></trkpt><trkpt lat="29.5792073105" lon="35.0059114303"><ele>59.74</ele><time>2015-11-19T13:31:56Z</time></trkpt><trkpt lat="29.5792152733" lon="35.0059471373"><ele>59.74</ele><time>2015-11-19T13:32:11Z</time></trkpt><trkpt lat="29.5792970806" lon="35.0063717645"><ele>60.22</ele><time>2015-11-19T13:32:24Z</time></trkpt><trkpt lat="29.5793384034" lon="35.0069515407"><ele>61.18</ele><time>2015-11-19T13:32:38Z</time></trkpt><trkpt lat="29.5794163551" lon="35.0076793414"><ele>61.66</ele><time>2015-11-19T13:32:55Z</time></trkpt><trkpt lat="29.5795005932" lon="35.0084729400"><ele>64.55</ele><time>2015-11-19T13:33:13Z</time></trkpt><trkpt lat="29.5795451850" lon="35.0090038497"><ele>65.51</ele><time>2015-11-19T13:33:26Z</time></trkpt><trkpt lat="29.5795886032" lon="35.0096126273"><ele>65.99</ele><time>2015-11-19T13:33:40Z</time></trkpt><trkpt lat="29.5795059577" lon="35.0103581138"><ele>67.91</ele><time>2015-11-19T13:33:57Z</time></trkpt><trkpt lat="29.5793162752" lon="35.0111028459"><ele>69.35</ele><time>2015-11-19T13:34:15Z</time></trkpt><trkpt lat="29.5791133493" lon="35.0119075924"><ele>70.79</ele><time>2015-11-19T13:34:35Z</time></trkpt><trkpt lat="29.5789470524" lon="35.0125763845"><ele>74.16</ele><time>2015-11-19T13:34:53Z</time></trkpt><trkpt lat="29.5786984451" lon="35.0131217111"><ele>74.16</ele><time>2015-11-19T13:35:10Z</time></trkpt><trkpt lat="29.5781581476" lon="35.0132005010"><ele>74.16</ele><time>2015-11-19T13:35:24Z</time></trkpt><trkpt lat="29.5771825779" lon="35.0131937116"><ele>74.16</ele><time>2015-11-19T13:35:41Z</time></trkpt><trkpt lat="29.5757557265" lon="35.0131700747"><ele>74.16</ele><time>2015-11-19T13:36:03Z</time></trkpt><trkpt lat="29.5744193159" lon="35.0131625310"><ele>74.16</ele><time>2015-11-19T13:36:22Z</time></trkpt><trkpt lat="29.5727161132" lon="35.0131406542"><ele>73.68</ele><time>2015-11-19T13:36:42Z</time></trkpt><trkpt lat="29.5712471008" lon="35.0131076295"><ele>74.16</ele><time>2015-11-19T13:36:59Z</time></trkpt><trkpt lat="29.5692278165" lon="35.0133012515"><ele>74.16</ele><time>2015-11-19T13:37:22Z</time></trkpt><trkpt lat="29.5679306332" lon="35.0135551393"><ele>74.16</ele><time>2015-11-19T13:37:38Z</time></trkpt><trkpt lat="29.5677973609" lon="35.0135876611"><ele>73.68</ele><time>2015-11-19T13:37:40Z</time></trkpt><trkpt lat="29.5677332394" lon="35.0135927740"><ele>74.16</ele><time>2015-11-19T13:37:41Z</time></trkpt><trkpt lat="29.5676691178" lon="35.0135885831"><ele>74.16</ele><time>2015-11-19T13:37:42Z</time></trkpt><trkpt lat="29.5676076785" lon="35.0135700591"><ele>74.16</ele><time>2015-11-19T13:37:43Z</time></trkpt><trkpt lat="29.5675508492" lon="35.0135319214"><ele>73.68</ele><time>2015-11-19T13:37:44Z</time></trkpt><trkpt lat="29.5675037429" lon="35.0134771038"><ele>73.68</ele><time>2015-11-19T13:37:45Z</time></trkpt><trkpt lat="29.5674699638" lon="35.0134096295"><ele>73.20</ele><time>2015-11-19T13:37:46Z</time></trkpt><trkpt lat="29.5674498472" lon="35.0133322645"><ele>73.20</ele><time>2015-11-19T13:37:47Z</time></trkpt><trkpt lat="29.5674373582" lon="35.0132490322"><ele>72.24</ele><time>2015-11-19T13:37:48Z</time></trkpt><trkpt lat="29.5674023218" lon="35.0129786320"><ele>70.79</ele><time>2015-11-19T13:37:51Z</time></trkpt><trkpt lat="29.5673549641" lon="35.0120731350"><ele>67.43</ele><time>2015-11-19T13:38:00Z</time></trkpt><trkpt lat="29.5673609152" lon="35.0107834116"><ele>65.03</ele><time>2015-11-19T13:38:13Z</time></trkpt><trkpt lat="29.5673524495" lon="35.0092307478"><ele>61.66</ele><time>2015-11-19T13:38:29Z</time></trkpt><trkpt lat="29.5673529524" lon="35.0075182412"><ele>58.30</ele><time>2015-11-19T13:38:47Z</time></trkpt><trkpt lat="29.5673516952" lon="35.0062138494"><ele>56.37</ele><time>2015-11-19T13:39:01Z</time></trkpt><trkpt lat="29.5673549641" lon="35.0045858324"><ele>53.01</ele><time>2015-11-19T13:39:18Z</time></trkpt><trkpt lat="29.5673476718" lon="35.0027756765"><ele>50.61</ele><time>2015-11-19T13:39:37Z</time></trkpt><trkpt lat="29.5671920199" lon="35.0012998749"><ele>48.68</ele><time>2015-11-19T13:39:53Z</time></trkpt><trkpt lat="29.5665465295" lon="35.0004156679"><ele>46.76</ele><time>2015-11-19T13:40:05Z</time></trkpt><trkpt lat="29.5656401105" lon="34.9994007871"><ele>43.88</ele><time>2015-11-19T13:40:20Z</time></trkpt><trkpt lat="29.5646015927" lon="34.9983948749"><ele>42.92</ele><time>2015-11-19T13:40:36Z</time></trkpt><trkpt lat="29.5636595506" lon="34.9982661288"><ele>41.95</ele><time>2015-11-19T13:40:47Z</time></trkpt><trkpt lat="29.5624123234" lon="34.9982673023"><ele>41.47</ele><time>2015-11-19T13:41:02Z</time></trkpt><trkpt lat="29.5610630047" lon="34.9982845690"><ele>40.51</ele><time>2015-11-19T13:41:18Z</time></trkpt><trkpt lat="29.5607179217" lon="34.9982953817"><ele>40.51</ele><time>2015-11-19T13:41:23Z</time></trkpt><trkpt lat="29.5595852751" lon="34.9982982315"><ele>40.03</ele><time>2015-11-19T13:41:37Z</time></trkpt><trkpt lat="29.5580341201" lon="34.9982756842"><ele>39.07</ele><time>2015-11-19T13:41:55Z</time></trkpt><trkpt lat="29.5562829729" lon="34.9982840661"><ele>38.11</ele><time>2015-11-19T13:42:15Z</time></trkpt><trkpt lat="29.5547032356" lon="34.9982766900"><ele>36.67</ele><time>2015-11-19T13:42:33Z</time></trkpt><trkpt lat="29.5532607101" lon="34.9982991535"><ele>35.23</ele><time>2015-11-19T13:42:49Z</time></trkpt><trkpt lat="29.5516759437" lon="34.9983053561"><ele>33.30</ele><time>2015-11-19T13:43:06Z</time></trkpt><trkpt lat="29.5504135452" lon="34.9982999079"><ele>32.34</ele><time>2015-11-19T13:43:20Z</time></trkpt><trkpt lat="29.5486319717" lon="34.9983026739"><ele>30.42</ele><time>2015-11-19T13:43:40Z</time></trkpt><trkpt lat="29.5480530336" lon="34.9982276559"><ele>29.46</ele><time>2015-11-19T13:43:47Z</time></trkpt><trkpt lat="29.5476087090" lon="34.9980158452"><ele>28.50</ele><time>2015-11-19T13:43:56Z</time></trkpt><trkpt lat="29.5475952141" lon="34.9980100617"><ele>28.50</ele><time>2015-11-19T13:43:59Z</time></trkpt><trkpt lat="29.5475844014" lon="34.9980053678"><ele>28.50</ele><time>2015-11-19T13:44:00Z</time></trkpt><trkpt lat="29.5475714933" lon="34.9980000872"><ele>28.50</ele><time>2015-11-19T13:44:01Z</time></trkpt><trkpt lat="29.5475566573" lon="34.9979943875"><ele>28.50</ele><time>2015-11-19T13:44:02Z</time></trkpt><trkpt lat="29.5475405641" lon="34.9979867600"><ele>28.50</ele><time>2015-11-19T13:44:03Z</time></trkpt><trkpt lat="29.5471268333" lon="34.9977961555"><ele>27.53</ele><time>2015-11-19T13:44:14Z</time></trkpt><trkpt lat="29.5462541934" lon="34.9975892901"><ele>27.05</ele><time>2015-11-19T13:44:27Z</time></trkpt><trkpt lat="29.5448978338" lon="34.9976090714"><ele>25.61</ele><time>2015-11-19T13:44:43Z</time></trkpt><trkpt lat="29.5432744268" lon="34.9976374023"><ele>23.69</ele><time>2015-11-19T13:45:01Z</time></trkpt><trkpt lat="29.5423222426" lon="34.9978771247"><ele>22.73</ele><time>2015-11-19T13:45:13Z</time></trkpt><trkpt lat="29.5409497898" lon="34.9982147478"><ele>21.29</ele><time>2015-11-19T13:45:30Z</time></trkpt><trkpt lat="29.5394942723" lon="34.9983076192"><ele>19.84</ele><time>2015-11-19T13:45:47Z</time></trkpt><trkpt lat="29.5379844401" lon="34.9983238801"><ele>18.88</ele><time>2015-11-19T13:46:05Z</time></trkpt><trkpt lat="29.5365350414" lon="34.9983345252"><ele>17.44</ele><time>2015-11-19T13:46:22Z</time></trkpt><trkpt lat="29.5355722122" lon="34.9983695615"><ele>16.96</ele><time>2015-11-19T13:46:34Z</time></trkpt><trkpt lat="29.5354193263" lon="34.9983632751"><ele>16.96</ele><time>2015-11-19T13:46:36Z</time></trkpt><trkpt lat="29.5353457332" lon="34.9983496964"><ele>16.96</ele><time>2015-11-19T13:46:37Z</time></trkpt><trkpt lat="29.5352719724" lon="34.9983277358"><ele>16.96</ele><time>2015-11-19T13:46:38Z</time></trkpt><trkpt lat="29.5352008939" lon="34.9982999917"><ele>16.96</ele><time>2015-11-19T13:46:39Z</time></trkpt><trkpt lat="29.5351317432" lon="34.9982678052"><ele>16.96</ele><time>2015-11-19T13:46:40Z</time></trkpt><trkpt lat="29.5345817227" lon="34.9978706706"><ele>16.48</ele><time>2015-11-19T13:46:50Z</time></trkpt><trkpt lat="29.5339443628" lon="34.9973048922"><ele>15.52</ele><time>2015-11-19T13:47:01Z</time></trkpt><trkpt lat="29.5339120086" lon="34.9972434528"><ele>15.52</ele><time>2015-11-19T13:47:02Z</time></trkpt><trkpt lat="29.5338870306" lon="34.9971782416"><ele>16.00</ele><time>2015-11-19T13:47:03Z</time></trkpt><trkpt lat="29.5338720270" lon="34.9971080851"><ele>16.00</ele><time>2015-11-19T13:47:04Z</time></trkpt><trkpt lat="29.5338605437" lon="34.9970339891"><ele>16.00</ele><time>2015-11-19T13:47:05Z</time></trkpt><trkpt lat="29.5338288601" lon="34.9968812708"><ele>15.52</ele><time>2015-11-19T13:47:07Z</time></trkpt><trkpt lat="29.5337931532" lon="34.9968124554"><ele>15.52</ele><time>2015-11-19T13:47:08Z</time></trkpt><trkpt lat="29.5337441191" lon="34.9967601523"><ele>15.52</ele><time>2015-11-19T13:47:09Z</time></trkpt><trkpt lat="29.5336856972" lon="34.9967292231"><ele>15.04</ele><time>2015-11-19T13:47:10Z</time></trkpt><trkpt lat="29.5336213242" lon="34.9967169855"><ele>15.04</ele><time>2015-11-19T13:47:11Z</time></trkpt><trkpt lat="29.5335559454" lon="34.9967232719"><ele>15.04</ele><time>2015-11-19T13:47:12Z</time></trkpt><trkpt lat="29.5334961824" lon="34.9967542849"><ele>15.04</ele><time>2015-11-19T13:47:13Z</time></trkpt><trkpt lat="29.5334448852" lon="34.9967995472"><ele>15.04</ele><time>2015-11-19T13:47:14Z</time></trkpt><trkpt lat="29.5334004611" lon="34.9968493357"><ele>15.04</ele><time>2015-11-19T13:47:15Z</time></trkpt><trkpt lat="29.5333610661" lon="34.9969026446"><ele>15.04</ele><time>2015-11-19T13:47:16Z</time></trkpt><trkpt lat="29.5333214197" lon="34.9969542772"><ele>15.04</ele><time>2015-11-19T13:47:17Z</time></trkpt><trkpt lat="29.5332350023" lon="34.9970490765"><ele>14.56</ele><time>2015-11-19T13:47:19Z</time></trkpt><trkpt lat="29.5325562358" lon="34.9976079818"><ele>16.00</ele><time>2015-11-19T13:47:33Z</time></trkpt><trkpt lat="29.5320902020" lon="34.9982718285"><ele>17.44</ele><time>2015-11-19T13:47:45Z</time></trkpt><trkpt lat="29.5318944845" lon="34.9990467355"><ele>17.92</ele><time>2015-11-19T13:47:56Z</time></trkpt><trkpt lat="29.5318794809" lon="34.9990970269"><ele>18.40</ele><time>2015-11-19T13:47:57Z</time></trkpt><trkpt lat="29.5317904651" lon="34.9994789902"><ele>18.40</ele><time>2015-11-19T13:48:07Z</time></trkpt><trkpt lat="29.5317379106" lon="34.9996693432"><ele>18.40</ele><time>2015-11-19T13:48:17Z</time></trkpt><trkpt lat="29.5317495614" lon="34.9996898789"><ele>17.92</ele><time>2015-11-19T13:48:21Z</time></trkpt><trkpt lat="29.5317892078" lon="34.9997430202"><ele>18.40</ele><time>2015-11-19T13:48:24Z</time></trkpt><trkpt lat="29.5318110846" lon="34.9997451995"><ele>18.88</ele><time>2015-11-19T13:48:25Z</time></trkpt><trkpt lat="29.5318292733" lon="34.9997426011"><ele>18.40</ele><time>2015-11-19T13:48:26Z</time></trkpt><trkpt lat="29.5318710152" lon="34.9997458700"><ele>18.40</ele><time>2015-11-19T13:48:38Z</time></trkpt><trkpt lat="29.5318952389" lon="34.9997431878"><ele>18.40</ele><time>2015-11-19T13:48:47Z</time></trkpt><trkpt lat="29.5319122542" lon="34.9997339677"><ele>18.40</ele><time>2015-11-19T13:48:48Z</time></trkpt><trkpt lat="29.5319673233" lon="34.9996987637"><ele>18.40</ele><time>2015-11-19T13:48:50Z</time></trkpt><trkpt lat="29.5319904573" lon="34.9996643141"><ele>18.88</ele><time>2015-11-19T13:48:51Z</time></trkpt><trkpt lat="29.5320041198" lon="34.9996273499"><ele>18.88</ele><time>2015-11-19T13:48:52Z</time></trkpt><trkpt lat="29.5320185367" lon="34.9995431956"><ele>18.40</ele><time>2015-11-19T13:48:54Z</time></trkpt><trkpt lat="29.5320328698" lon="34.9994975980"><ele>18.88</ele><time>2015-11-19T13:48:55Z</time></trkpt><trkpt lat="29.5320680737" lon="34.9994025473"><ele>18.88</ele><time>2015-11-19T13:48:57Z</time></trkpt><trkpt lat="29.5321549941" lon="34.9990539439"><ele>18.40</ele><time>2015-11-19T13:49:05Z</time></trkpt><trkpt lat="29.5321678184" lon="34.9990352523"><ele>18.40</ele><time>2015-11-19T13:49:06Z</time></trkpt><trkpt lat="29.5321768709" lon="34.9990193266"><ele>18.88</ele><time>2015-11-19T13:49:07Z</time></trkpt><trkpt lat="29.5321896952" lon="34.9989829492"><ele>18.88</ele><time>2015-11-19T13:49:17Z</time></trkpt><trkpt lat="29.5322114881" lon="34.9989701249"><ele>18.40</ele><time>2015-11-19T13:49:33Z</time></trkpt><trkpt lat="29.5322029386" lon="34.9989803508"><ele>18.40</ele><time>2015-11-19T13:50:08Z</time></trkpt><trkpt lat="29.5321919583" lon="34.9989814404"><ele>18.40</ele><time>2015-11-19T13:50:49Z</time></trkpt><trkpt lat="29.5322116558" lon="34.9990004674"><ele>18.40</ele><time>2015-11-19T13:51:32Z</time></trkpt><trkpt lat="29.5322155114" lon="34.9990023952"><ele>17.92</ele><time>2015-11-19T13:52:03Z</time></trkpt></trkseg></trk></gpx>